Flugplatz Nordholz Airport

Bericht für ETMN

vom 07.08. um 17:20 UTC

Wind 7 kt aus 50°

Sichtweite 10 km oder mehr

gering bewölkt in 32000 ft

Temperatur 29.0°C

Taupunkt 14.0°C

Luftfeuchtigkeit 40%

Luftdruck 1020 hPa

ETMN 071720Z 05007KT 9999 FEW320 29/14 Q1020 BLU+

Prognose für ETMN

vom 07.08. um 10:24 UTC

Zwischen 11:00 UTC und 20:00 UTC

Wind 7 kt aus 120°

Sichtweite 10 km oder mehr

keine signifikanten Wettererscheinungen

gering bewölkt in 24000 ft

TAF ETMN 071024Z 0711/0720 12007KT 9999 NSW FEW240
Impressum